createdAt,value
2019-04-05T00:00:49.451Z,4.67
2019-04-05T00:01:49.394Z,4.73
2019-04-05T00:02:49.365Z,4.75
2019-04-05T00:03:49.314Z,4.69
2019-04-05T00:04:49.269Z,4.69
2019-04-05T00:05:49.247Z,4.60
2019-04-05T00:06:49.187Z,4.67
2019-04-05T00:07:49.153Z,4.63
2019-04-05T00:08:49.085Z,4.69
2019-04-05T00:09:49.045Z,4.67
2019-04-05T00:10:49.007Z,4.69
2019-04-05T00:11:48.965Z,4.70
2019-04-05T00:12:48.940Z,4.72
2019-04-05T00:13:48.875Z,4.67
2019-04-05T00:14:48.836Z,4.67
2019-04-05T00:15:48.775Z,4.73
2019-04-05T00:16:48.753Z,4.78
2019-04-05T00:17:48.691Z,4.77
2019-04-05T00:18:48.672Z,4.84
2019-04-05T00:19:48.604Z,4.80
2019-04-05T00:20:48.555Z,4.77
2019-04-05T00:21:48.508Z,4.77
2019-04-05T00:22:48.458Z,4.78
2019-04-05T00:23:48.443Z,4.84
2019-04-05T00:24:48.394Z,4.84
2019-04-05T00:25:48.330Z,4.88
2019-04-05T00:26:48.283Z,4.86
2019-04-05T00:27:48.235Z,4.86
2019-04-05T00:28:48.219Z,4.89
2019-04-05T00:29:48.156Z,4.82
2019-04-05T00:30:48.111Z,4.88
2019-04-05T00:31:48.067Z,4.92
2019-04-05T00:32:48.019Z,4.94
2019-04-05T00:33:47.978Z,4.91
2019-04-05T00:34:47.957Z,4.92
2019-04-05T00:35:47.880Z,4.94
2019-04-05T00:36:47.842Z,4.89
2019-04-05T00:37:47.803Z,4.96
2019-04-05T00:38:47.768Z,4.89
2019-04-05T00:39:47.707Z,4.94
2019-04-05T00:40:47.691Z,4.97
2019-04-05T00:41:47.625Z,4.86
2019-04-05T00:42:47.580Z,4.88
2019-04-05T00:43:47.541Z,4.94
2019-04-05T00:44:47.503Z,4.94
2019-04-05T00:45:47.446Z,4.92
2019-04-05T00:46:47.423Z,4.92
2019-04-05T00:47:47.347Z,4.97
2019-04-05T00:48:47.304Z,4.97
2019-04-05T00:49:47.267Z,4.94
2019-04-05T00:50:47.219Z,4.94
2019-04-05T00:51:47.183Z,4.97
2019-04-05T00:52:47.166Z,4.89
2019-04-05T00:53:47.084Z,4.91
2019-04-05T00:54:47.066Z,4.99
2019-04-05T00:55:47.001Z,4.91
2019-04-05T00:56:46.958Z,5.03
2019-04-05T00:57:49.433Z,4.92
2019-04-05T00:58:46.862Z,4.94
2019-04-05T00:59:46.841Z,4.86
2019-04-05T01:00:46.775Z,4.94
2019-04-05T01:01:46.745Z,4.96
2019-04-05T01:02:46.697Z,4.86
2019-04-05T01:03:46.654Z,4.92
2019-04-05T01:04:46.662Z,4.97
2019-04-05T01:05:46.582Z,4.89
2019-04-05T01:06:46.509Z,4.97
2019-04-05T01:07:46.489Z,4.88
2019-04-05T01:08:46.434Z,4.97
2019-04-05T01:09:46.378Z,4.91
2019-04-05T01:10:46.334Z,4.97
2019-04-05T01:11:46.305Z,4.91
2019-04-05T01:12:46.242Z,4.96
2019-04-05T01:13:46.228Z,4.94
2019-04-05T01:14:46.160Z,4.89
2019-04-05T01:15:46.115Z,4.96
2019-04-05T01:16:46.071Z,4.89
2019-04-05T01:17:46.027Z,4.94
2019-04-05T01:18:45.998Z,4.97
2019-04-05T01:19:45.928Z,4.97
2019-04-05T01:20:45.886Z,4.92
2019-04-05T01:21:45.847Z,4.99
2019-04-05T01:22:45.811Z,4.96
2019-04-05T01:23:45.783Z,4.91
2019-04-05T01:24:45.714Z,4.88
2019-04-05T01:25:45.688Z,4.86
2019-04-05T01:26:45.623Z,4.94
2019-04-05T01:27:48.353Z,4.88
2019-04-05T01:28:45.542Z,4.91
2019-04-05T01:29:45.486Z,5.00
2019-04-05T01:30:45.467Z,4.92
2019-04-05T01:31:45.403Z,4.91
2019-04-05T01:32:45.361Z,4.92
2019-04-05T01:33:45.323Z,4.94
2019-04-05T01:34:45.273Z,4.92
2019-04-05T01:35:45.263Z,4.96
2019-04-05T01:36:45.186Z,4.96
2019-04-05T01:37:45.127Z,4.94
2019-04-05T01:38:45.086Z,4.91
2019-04-05T01:39:45.045Z,4.92
2019-04-05T01:40:45.004Z,4.97
2019-04-05T01:41:44.992Z,4.94
2019-04-05T01:42:44.916Z,4.99
2019-04-05T01:43:44.865Z,4.99
2019-04-05T01:44:44.819Z,4.91
2019-04-05T01:45:53.608Z,4.94
2019-04-05T01:46:44.734Z,4.92
2019-04-05T01:47:44.722Z,4.94
2019-04-05T01:48:44.652Z,4.89
2019-04-05T01:49:44.603Z,4.94
2019-04-05T01:50:44.555Z,4.94
2019-04-05T01:51:44.509Z,4.94
2019-04-05T01:52:44.474Z,4.91
2019-04-05T01:53:44.461Z,5.00
2019-04-05T01:54:44.389Z,5.06
2019-04-05T01:55:44.368Z,5.00
2019-04-05T01:56:44.291Z,5.04
2019-04-05T01:57:44.243Z,4.91
2019-04-05T01:58:44.220Z,4.97
2019-04-05T01:59:44.189Z,4.96
2019-04-05T02:00:44.124Z,5.04
2019-04-05T02:01:44.063Z,5.06
2019-04-05T02:02:44.025Z,4.97
2019-04-05T02:03:43.987Z,4.94
2019-04-05T02:04:43.958Z,5.02
2019-04-05T02:05:43.894Z,5.02
2019-04-05T02:06:43.855Z,5.07
2019-04-05T02:07:43.811Z,4.92
2019-04-05T02:08:43.766Z,5.03
2019-04-05T02:09:43.745Z,5.03
2019-04-05T02:10:43.669Z,5.00
2019-04-05T02:11:43.630Z,4.99
2019-04-05T02:12:43.574Z,5.06
2019-04-05T02:13:43.545Z,5.04
2019-04-05T02:14:43.498Z,4.97
2019-04-05T02:15:43.477Z,5.00
2019-04-05T02:16:43.407Z,5.07
2019-04-05T02:17:43.389Z,5.06
2019-04-05T02:18:43.328Z,4.97
2019-04-05T02:19:43.278Z,5.04
2019-04-05T02:20:43.255Z,5.04
2019-04-05T02:21:43.183Z,5.02
2019-04-05T02:22:43.136Z,5.06
2019-04-05T02:23:43.120Z,5.04
2019-04-05T02:24:43.045Z,5.03
2019-04-05T02:25:43.030Z,5.09
2019-04-05T02:26:42.965Z,5.04
2019-04-05T02:27:42.923Z,5.04
2019-04-05T02:28:42.877Z,5.04
2019-04-05T02:29:42.850Z,5.06
2019-04-05T02:30:42.780Z,5.07
2019-04-05T02:31:42.771Z,5.03
2019-04-05T02:32:42.702Z,5.02
2019-04-05T02:33:42.656Z,5.04
2019-04-05T02:34:42.610Z,4.99
2019-04-05T02:35:42.583Z,4.99
2019-04-05T02:36:42.539Z,4.99
2019-04-05T02:37:42.479Z,5.00
2019-04-05T02:38:42.436Z,5.06
2019-04-05T02:39:42.397Z,5.07
2019-04-05T02:40:42.348Z,5.00
2019-04-05T02:41:42.344Z,5.04
2019-04-05T02:42:42.253Z,5.06
2019-04-05T02:43:42.211Z,5.02
2019-04-05T02:44:42.158Z,5.03
2019-04-05T02:45:42.145Z,5.00
2019-04-05T02:46:42.082Z,5.07
2019-04-05T02:47:42.058Z,5.07
2019-04-05T02:48:41.992Z,5.06
2019-04-05T02:49:41.953Z,5.03
2019-04-05T02:50:41.912Z,5.00
2019-04-05T02:51:41.856Z,5.03
2019-04-05T02:52:41.805Z,5.04
2019-04-05T02:53:41.770Z,5.03
2019-04-05T02:54:41.719Z,5.04
2019-04-05T02:55:41.695Z,5.03
2019-04-05T02:56:41.621Z,5.07
2019-04-05T02:57:41.585Z,4.94
2019-04-05T02:58:41.560Z,4.91
2019-04-05T02:59:41.510Z,4.89
2019-04-05T03:00:41.444Z,4.94
2019-04-05T03:01:41.399Z,4.91
2019-04-05T03:02:41.349Z,4.97
2019-04-05T03:03:41.313Z,4.89
2019-04-05T03:04:41.292Z,4.78
2019-04-05T03:05:41.218Z,4.88
2019-04-05T03:06:41.176Z,4.88
2019-04-05T03:07:41.131Z,4.86
2019-04-05T03:08:41.091Z,4.89
2019-04-05T03:09:41.043Z,4.84
2019-04-05T03:10:41.030Z,4.86
2019-04-05T03:11:40.959Z,4.89
2019-04-05T03:12:40.997Z,4.88
2019-04-05T03:13:40.896Z,4.89
2019-04-05T03:14:40.817Z,4.82
2019-04-05T03:15:40.771Z,4.85
2019-04-05T03:16:41.838Z,4.86
2019-04-05T03:17:40.690Z,4.84
2019-04-05T03:18:40.666Z,4.88
2019-04-05T03:19:40.616Z,4.86
2019-04-05T03:20:40.556Z,4.89
2019-04-05T03:21:40.516Z,4.82
2019-04-05T03:22:40.500Z,4.89
2019-04-05T03:23:40.426Z,4.88
2019-04-05T03:24:40.427Z,4.88
2019-04-05T03:25:40.334Z,4.80
2019-04-05T03:26:40.284Z,4.82
2019-04-05T03:27:40.241Z,4.84
2019-04-05T03:28:40.198Z,4.80
2019-04-05T03:29:40.183Z,4.84
2019-04-05T03:30:40.115Z,4.84
2019-04-05T03:31:40.080Z,4.86
2019-04-05T03:32:40.033Z,4.88
2019-04-05T03:33:39.992Z,4.88
2019-04-05T03:34:39.984Z,4.91
2019-04-05T03:35:39.896Z,4.86
2019-04-05T03:36:39.854Z,4.84
2019-04-05T03:37:39.799Z,4.86
2019-04-05T03:38:39.756Z,4.88
2019-04-05T03:39:39.750Z,4.84
2019-04-05T03:40:39.673Z,4.88
2019-04-05T03:41:39.633Z,4.84
2019-04-05T03:42:39.585Z,4.88
2019-04-05T03:43:39.534Z,4.84
2019-04-05T03:44:39.516Z,4.84
2019-04-05T03:45:39.438Z,4.92
2019-04-05T03:46:54.737Z,4.91
2019-04-05T03:47:39.354Z,4.91
2019-04-05T03:48:39.308Z,4.92
2019-04-05T03:49:39.296Z,4.89
2019-04-05T03:50:39.227Z,4.94
2019-04-05T03:51:39.176Z,4.97
2019-04-05T03:52:39.132Z,4.92
2019-04-05T03:53:39.109Z,4.91
2019-04-05T03:54:39.076Z,4.94
2019-04-05T03:55:39.013Z,4.92
2019-04-05T03:56:38.962Z,4.86
2019-04-05T03:57:38.914Z,4.91
2019-04-05T03:58:38.880Z,4.88
2019-04-05T03:59:38.823Z,4.89
2019-04-05T04:00:38.815Z,4.89
2019-04-05T04:01:38.746Z,4.78
2019-04-05T04:02:38.694Z,4.92
2019-04-05T04:03:38.651Z,4.94
2019-04-05T04:04:38.605Z,4.92
2019-04-05T04:05:38.579Z,4.91
2019-04-05T04:06:38.518Z,4.89
2019-04-05T04:07:38.475Z,4.94
2019-04-05T04:08:38.427Z,4.89
2019-04-05T04:09:38.412Z,4.96
2019-04-05T04:10:38.344Z,4.78
2019-04-05T04:11:38.292Z,4.92
2019-04-05T04:12:38.255Z,4.92
2019-04-05T04:13:38.205Z,4.86
2019-04-05T04:14:38.183Z,4.84
2019-04-05T04:15:38.143Z,4.78
2019-04-05T04:16:38.075Z,4.85
2019-04-05T04:17:38.022Z,4.92
2019-04-05T04:18:37.975Z,4.88
2019-04-05T04:19:37.932Z,4.80
2019-04-05T04:20:37.923Z,4.84
2019-04-05T04:21:37.851Z,4.91
2019-04-05T04:22:37.811Z,4.86
2019-04-05T04:23:37.777Z,4.85
2019-04-05T04:24:37.708Z,4.84
2019-04-05T04:25:37.697Z,4.88
2019-04-05T04:26:37.637Z,4.78
2019-04-05T04:27:37.606Z,4.84
2019-04-05T04:28:37.553Z,4.86
2019-04-05T04:29:37.499Z,4.86
2019-04-05T04:30:37.480Z,4.77
2019-04-05T04:31:37.410Z,4.78
2019-04-05T04:32:37.362Z,4.77
2019-04-05T04:33:37.344Z,4.77
2019-04-05T04:34:37.270Z,4.82
2019-04-05T04:35:37.227Z,4.72
2019-04-05T04:36:37.182Z,4.86
2019-04-05T04:37:37.132Z,4.78
2019-04-05T04:38:37.128Z,4.82
2019-04-05T04:39:37.078Z,4.80
2019-04-05T04:40:37.007Z,4.84
2019-04-05T04:41:36.967Z,4.84
2019-04-05T04:42:36.916Z,4.86
2019-04-05T04:43:36.868Z,4.94
2019-04-05T04:44:36.829Z,4.91
2019-04-05T04:45:36.805Z,4.89
2019-04-05T04:46:36.741Z,4.94
2019-04-05T04:47:36.693Z,5.00
2019-04-05T04:48:36.671Z,4.97
2019-04-05T04:49:36.600Z,4.94
2019-04-05T04:50:36.583Z,4.96
2019-04-05T04:51:36.516Z,5.02
2019-04-05T04:52:36.471Z,5.02
2019-04-05T04:53:36.427Z,4.97
2019-04-05T04:54:36.393Z,5.06
2019-04-05T04:55:36.338Z,4.99
2019-04-05T04:56:36.308Z,4.97
2019-04-05T04:57:36.259Z,4.97
2019-04-05T04:58:36.207Z,4.97
2019-04-05T04:59:36.176Z,5.03
2019-04-05T05:00:36.145Z,4.99
2019-04-05T05:01:36.075Z,4.99
2019-04-05T05:02:36.025Z,5.04
2019-04-05T05:03:36.001Z,5.04
2019-04-05T05:04:35.945Z,5.09
2019-04-05T05:05:35.895Z,5.00
2019-04-05T05:06:35.864Z,4.92
2019-04-05T05:07:35.806Z,4.92
2019-04-05T05:08:35.788Z,4.97
2019-04-05T05:09:35.722Z,4.91
2019-04-05T05:10:35.671Z,4.94
2019-04-05T05:11:35.634Z,4.88
2019-04-05T05:12:35.592Z,4.86
2019-04-05T05:13:35.563Z,4.84
2019-04-05T05:14:35.498Z,4.91
2019-04-05T05:15:35.446Z,4.92
2019-04-05T05:16:35.400Z,4.89
2019-04-05T05:17:38.688Z,4.94
2019-04-05T05:18:35.325Z,4.92
2019-04-05T05:19:35.299Z,4.91
2019-04-05T05:20:35.235Z,4.96
2019-04-05T05:21:35.179Z,4.91
2019-04-05T05:22:35.141Z,4.91
2019-04-05T05:23:35.113Z,5.17
2019-04-05T05:24:35.077Z,5.51
2019-04-05T05:25:35.014Z,5.81
2019-04-05T05:26:34.995Z,5.86
2019-04-05T05:27:34.911Z,5.93
2019-04-05T05:28:34.864Z,5.91
2019-04-05T05:29:34.849Z,5.94
2019-04-05T05:30:34.785Z,5.89
2019-04-05T05:31:34.749Z,5.89
2019-04-05T05:32:34.726Z,6.01
2019-04-05T05:33:34.661Z,6.18
2019-04-05T05:34:34.609Z,6.22
2019-04-05T05:35:34.584Z,6.40
2019-04-05T05:36:34.514Z,6.28
2019-04-05T05:37:34.483Z,6.15
2019-04-05T05:38:34.428Z,6.36
2019-04-05T05:39:34.383Z,6.41
2019-04-05T05:40:35.552Z,6.51
2019-04-05T05:41:34.311Z,6.70
2019-04-05T05:42:34.276Z,6.62
2019-04-05T05:43:34.207Z,6.66
2019-04-05T05:44:34.165Z,6.64
2019-04-05T05:45:34.127Z,6.81
2019-04-05T05:46:34.070Z,6.62
2019-04-05T05:47:34.046Z,6.66
2019-04-05T05:48:33.987Z,6.51
2019-04-05T05:49:34.013Z,6.61
2019-04-05T05:50:33.904Z,6.73
2019-04-05T05:51:33.863Z,6.81
2019-04-05T05:52:33.857Z,6.79
2019-04-05T05:53:33.760Z,6.67
2019-04-05T05:54:33.724Z,6.58
2019-04-05T05:55:33.677Z,6.59
2019-04-05T05:56:33.629Z,6.80
2019-04-05T05:57:33.594Z,6.81
2019-04-05T05:58:33.574Z,6.77
2019-04-05T05:59:33.493Z,6.69
2019-04-05T06:00:33.447Z,6.80
2019-04-05T06:01:33.433Z,6.76
2019-04-05T06:02:33.367Z,6.79
2019-04-05T06:03:33.326Z,6.88
2019-04-05T06:04:33.300Z,6.85
2019-04-05T06:05:33.228Z,6.94
2019-04-05T06:06:33.202Z,6.91
2019-04-05T06:07:33.143Z,6.95
2019-04-05T06:08:33.123Z,7.13
2019-04-05T06:09:33.065Z,7.17
2019-04-05T06:10:33.017Z,7.31
2019-04-05T06:11:32.976Z,7.24
2019-04-05T06:12:32.937Z,7.03
2019-04-05T06:13:32.878Z,7.12
2019-04-05T06:14:32.856Z,6.99
2019-04-05T06:15:32.800Z,6.95
2019-04-05T06:16:45.563Z,6.91
2019-04-05T06:17:32.702Z,6.87
2019-04-05T06:18:32.661Z,6.81
2019-04-05T06:19:32.645Z,6.79
2019-04-05T06:20:32.573Z,6.74
2019-04-05T06:21:32.542Z,6.73
2019-04-05T06:22:32.493Z,6.79
2019-04-05T06:23:33.934Z,6.85
2019-04-05T06:24:32.406Z,6.79
2019-04-05T06:25:32.383Z,6.80
2019-04-05T06:26:32.314Z,6.80
2019-04-05T06:27:35.285Z,6.81
2019-04-05T06:28:32.265Z,6.79
2019-04-05T06:29:32.191Z,6.91
2019-04-05T06:30:32.205Z,6.91
2019-04-05T06:31:32.099Z,6.88
2019-04-05T06:32:32.082Z,6.95
2019-04-05T06:33:32.213Z,6.89
2019-04-05T06:34:31.971Z,6.89
2019-04-05T06:35:31.955Z,6.97
2019-04-05T06:36:31.885Z,7.02
2019-04-05T06:37:31.836Z,7.05
2019-04-05T06:38:31.792Z,7.09
2019-04-05T06:39:31.752Z,7.20
2019-04-05T06:40:40.732Z,7.28
2019-04-05T06:41:31.693Z,7.30
2019-04-05T06:42:31.630Z,7.34
2019-04-05T06:43:31.586Z,7.55
2019-04-05T06:44:31.583Z,7.69
2019-04-05T06:45:31.491Z,7.64
2019-04-05T06:46:31.476Z,7.89
2019-04-05T06:47:31.415Z,8.29
2019-04-05T06:48:31.369Z,8.40
2019-04-05T06:49:31.328Z,8.41
2019-04-05T06:50:31.287Z,8.62
2019-04-05T06:51:31.309Z,8.62
2019-04-05T06:52:31.289Z,8.74
2019-04-05T06:53:31.162Z,8.92
2019-04-05T06:54:31.114Z,9.01
2019-04-05T06:55:31.088Z,9.18
2019-04-05T06:56:31.031Z,9.53
2019-04-05T06:57:31.005Z,9.97
2019-04-05T06:58:30.947Z,10.32
2019-04-05T06:59:30.906Z,10.40
2019-04-05T07:00:30.874Z,10.25
2019-04-05T07:01:30.962Z,9.99
2019-04-05T07:02:30.884Z,9.97
2019-04-05T07:03:30.794Z,10.22
2019-04-05T07:04:31.204Z,10.64
2019-04-05T07:05:30.673Z,10.48
2019-04-05T07:06:30.642Z,10.56
2019-04-05T07:07:30.601Z,10.42
2019-04-05T07:08:30.796Z,10.36
2019-04-05T07:09:30.498Z,10.33
2019-04-05T07:10:30.509Z,10.22
2019-04-05T07:11:30.402Z,10.04
2019-04-05T07:12:30.395Z,10.04
2019-04-05T07:13:30.526Z,10.15
2019-04-05T07:14:30.298Z,10.05
2019-04-05T07:15:30.257Z,9.81
2019-04-05T07:16:30.289Z,9.89
2019-04-05T07:17:30.172Z,9.86
2019-04-05T07:18:35.650Z,9.68
2019-04-05T07:19:30.125Z,9.68
2019-04-05T07:20:30.080Z,9.60
2019-04-05T07:21:30.026Z,9.42
2019-04-05T07:22:37.207Z,9.21
2019-04-05T07:23:29.927Z,9.23
2019-04-05T07:24:29.879Z,9.15
2019-04-05T07:25:29.889Z,9.21
2019-04-05T07:26:29.886Z,9.15
2019-04-05T07:27:29.766Z,9.26
2019-04-05T07:28:29.716Z,9.21
2019-04-05T07:29:29.683Z,9.20
2019-04-05T07:30:29.660Z,9.31
2019-04-05T07:31:29.590Z,9.35
2019-04-05T07:32:31.294Z,9.39
2019-04-05T07:33:29.527Z,9.43
2019-04-05T07:34:29.475Z,9.48
2019-04-05T07:35:33.695Z,9.43
2019-04-05T07:36:29.439Z,9.61
2019-04-05T07:37:29.355Z,9.57
2019-04-05T07:38:29.384Z,9.84
2019-04-05T07:39:29.302Z,9.87
2019-04-05T07:40:29.244Z,9.97
2019-04-05T07:41:31.683Z,10.29
2019-04-05T07:42:29.157Z,11.18
2019-04-05T07:43:29.187Z,11.17
2019-04-05T07:44:29.088Z,11.99
2019-04-05T07:45:29.017Z,12.31
2019-04-05T07:46:29.021Z,13.05
2019-04-05T07:47:28.932Z,13.82
2019-04-05T07:48:28.925Z,13.91
2019-04-05T07:49:28.859Z,13.85
2019-04-05T07:50:28.831Z,13.78
2019-04-05T07:51:28.819Z,13.19
2019-04-05T07:52:28.739Z,13.01
2019-04-05T07:53:28.681Z,13.25
2019-04-05T07:54:28.668Z,13.33
2019-04-05T07:55:28.624Z,13.19
2019-04-05T07:56:28.578Z,12.90
2019-04-05T07:57:28.533Z,12.85
2019-04-05T07:58:28.501Z,12.67
2019-04-05T07:59:28.490Z,12.13
2019-04-05T08:00:28.427Z,11.98
2019-04-05T08:01:28.369Z,11.37
2019-04-05T08:02:28.331Z,11.28
2019-04-05T08:03:28.297Z,11.32
2019-04-05T08:04:28.322Z,11.51
2019-04-05T08:05:28.269Z,11.43
2019-04-05T08:06:28.217Z,11.02
2019-04-05T08:07:28.167Z,10.97
2019-04-05T08:08:28.116Z,11.22
2019-04-05T08:09:28.108Z,11.00
2019-04-05T08:10:28.045Z,10.64
2019-04-05T08:11:28.038Z,11.06
2019-04-05T08:12:27.967Z,10.99
2019-04-05T08:13:27.928Z,11.40
2019-04-05T08:14:27.877Z,12.04
2019-04-05T08:15:27.856Z,12.17
2019-04-05T08:16:27.808Z,12.34
2019-04-05T08:17:27.875Z,12.78
2019-04-05T08:18:27.736Z,12.93
2019-04-05T08:19:27.702Z,13.29
2019-04-05T08:20:27.649Z,13.17
2019-04-05T08:21:27.651Z,13.48
2019-04-05T08:22:27.586Z,13.85
2019-04-05T08:23:27.586Z,13.64
2019-04-05T08:24:27.521Z,13.49
2019-04-05T08:25:27.454Z,13.73
2019-04-05T08:26:27.541Z,14.04
2019-04-05T08:27:27.401Z,14.06
2019-04-05T08:28:29.653Z,14.06
2019-04-05T08:29:27.323Z,14.42
2019-04-05T08:30:27.328Z,14.18
2019-04-05T08:31:27.351Z,14.04
2019-04-05T08:32:27.195Z,13.29
2019-04-05T08:33:27.170Z,13.00
2019-04-05T08:34:27.143Z,12.68
2019-04-05T08:35:27.111Z,12.87
2019-04-05T08:36:27.069Z,12.57
2019-04-05T08:37:27.021Z,12.77
2019-04-05T08:38:27.044Z,13.05
2019-04-05T08:39:26.953Z,12.89
2019-04-05T08:40:26.910Z,12.90
2019-04-05T08:41:26.921Z,13.00
2019-04-05T08:42:26.831Z,12.96
2019-04-05T08:43:26.800Z,12.79
2019-04-05T08:44:26.763Z,12.85
2019-04-05T08:45:26.719Z,12.75
2019-04-05T08:46:26.789Z,12.54
2019-04-05T08:47:26.642Z,12.70
2019-04-05T08:48:26.975Z,12.21
2019-04-05T08:49:26.581Z,12.23
2019-04-05T08:50:26.601Z,12.32
2019-04-05T08:51:26.584Z,12.16
2019-04-05T08:52:27.134Z,11.82
2019-04-05T08:53:26.438Z,11.83
2019-04-05T08:54:32.441Z,11.65
2019-04-05T08:55:26.379Z,11.80
2019-04-05T08:56:26.347Z,11.98
2019-04-05T08:57:26.386Z,12.24
2019-04-05T08:58:33.248Z,12.21
2019-04-05T08:59:26.200Z,12.02
2019-04-05T09:00:26.234Z,11.90
2019-04-05T09:01:26.136Z,11.61
2019-04-05T09:02:26.156Z,11.43
2019-04-05T09:03:26.056Z,11.39
2019-04-05T09:04:26.009Z,11.24
2019-04-05T09:05:25.974Z,11.35
2019-04-05T09:06:25.934Z,11.35
2019-04-05T09:07:25.891Z,11.37
2019-04-05T09:08:25.878Z,11.32
2019-04-05T09:09:25.845Z,11.22
2019-04-05T09:10:25.772Z,11.27
2019-04-05T09:11:25.727Z,11.07
2019-04-05T09:12:25.839Z,11.04
2019-04-05T09:13:25.661Z,10.86
2019-04-05T09:14:25.663Z,10.73
2019-04-05T09:15:25.767Z,10.66
2019-04-05T09:16:25.704Z,10.76
2019-04-05T09:17:25.492Z,10.68
2019-04-05T09:18:25.624Z,10.81
2019-04-05T09:19:25.481Z,10.70
2019-04-05T09:20:25.377Z,10.59
2019-04-05T09:21:25.362Z,10.40
2019-04-05T09:22:25.302Z,10.36
2019-04-05T09:23:25.274Z,10.29
2019-04-05T09:24:25.252Z,10.36
2019-04-05T09:25:25.206Z,10.40
2019-04-05T09:26:25.149Z,10.44
2019-04-05T09:27:25.107Z,10.33
2019-04-05T09:28:25.074Z,10.48
2019-04-05T09:29:25.339Z,10.52
2019-04-05T09:30:25.012Z,10.55
2019-04-05T09:31:24.943Z,10.42
2019-04-05T09:32:24.907Z,10.41
2019-04-05T09:33:24.865Z,10.40
2019-04-05T09:34:24.827Z,10.60
2019-04-05T09:35:24.828Z,10.53
2019-04-05T09:36:24.782Z,10.63
2019-04-05T09:37:24.696Z,10.71
2019-04-05T09:38:24.686Z,10.73
2019-04-05T09:39:24.624Z,10.78
2019-04-05T09:40:24.600Z,10.67
2019-04-05T09:41:24.659Z,10.66
2019-04-05T09:42:24.506Z,10.59
2019-04-05T09:43:24.462Z,10.51
2019-04-05T09:44:24.428Z,10.52
2019-04-05T09:45:24.386Z,10.55
2019-04-05T09:46:24.381Z,10.48
2019-04-05T09:47:24.297Z,10.61
2019-04-05T09:48:24.251Z,10.66
2019-04-05T09:49:36.170Z,10.67
2019-04-05T09:50:24.188Z,10.86
2019-04-05T09:51:24.145Z,10.91
2019-04-05T09:52:24.120Z,11.07
2019-04-05T09:53:24.052Z,11.25
2019-04-05T09:54:24.022Z,11.25
2019-04-05T09:55:23.992Z,11.43
2019-04-05T09:56:23.964Z,11.36
2019-04-05T09:57:23.918Z,11.11
2019-04-05T09:58:23.881Z,11.06
2019-04-05T09:59:23.818Z,11.00
2019-04-05T10:00:23.785Z,10.99
2019-04-05T10:01:23.735Z,10.96
2019-04-05T10:02:23.708Z,10.85
2019-04-05T10:03:23.685Z,10.88
2019-04-05T10:04:23.617Z,10.99
2019-04-05T10:05:23.655Z,10.86
2019-04-05T10:06:23.539Z,10.79
2019-04-05T10:07:23.535Z,10.78
2019-04-05T10:08:23.514Z,10.73
2019-04-05T10:09:23.439Z,10.85
2019-04-05T10:10:23.404Z,10.96
2019-04-05T10:11:23.328Z,10.96
2019-04-05T10:12:23.303Z,10.79
2019-04-05T10:13:23.259Z,10.78
2019-04-05T10:14:23.270Z,10.79
2019-04-05T10:15:23.208Z,10.82
2019-04-05T10:16:23.129Z,11.15
2019-04-05T10:17:23.103Z,11.29
2019-04-05T10:18:23.087Z,11.39
2019-04-05T10:19:23.040Z,11.27
2019-04-05T10:20:23.032Z,11.49
2019-04-05T10:21:22.939Z,11.86
2019-04-05T10:22:22.908Z,11.88
2019-04-05T10:23:22.865Z,12.01
2019-04-05T10:24:22.835Z,12.04
2019-04-05T10:25:22.841Z,12.09
2019-04-05T10:26:22.757Z,12.12
2019-04-05T10:27:23.084Z,12.21
2019-04-05T10:28:22.675Z,12.29
2019-04-05T10:29:22.674Z,12.38
2019-04-05T10:30:22.584Z,12.62
2019-04-05T10:31:22.558Z,12.59
2019-04-05T10:32:22.519Z,12.67
2019-04-05T10:33:22.478Z,12.92
2019-04-05T10:34:22.463Z,13.19
2019-04-05T10:35:22.402Z,13.28
2019-04-05T10:36:22.340Z,13.44
2019-04-05T10:37:22.349Z,13.77
2019-04-05T10:38:22.289Z,14.04
2019-04-05T10:39:22.238Z,13.64
2019-04-05T10:40:22.229Z,13.48
2019-04-05T10:41:23.161Z,13.05
2019-04-05T10:42:22.149Z,13.04
2019-04-05T10:43:22.099Z,13.00
2019-04-05T10:44:22.040Z,13.03
2019-04-05T10:45:22.028Z,13.15
2019-04-05T10:46:22.011Z,13.12
2019-04-05T10:47:21.938Z,13.23
2019-04-05T10:48:21.903Z,13.07
2019-04-05T10:49:21.877Z,12.93
2019-04-05T10:50:21.856Z,12.90
2019-04-05T10:51:21.823Z,13.20
2019-04-05T10:52:21.760Z,13.20
2019-04-05T10:53:21.708Z,13.36
2019-04-05T10:54:21.671Z,13.46
2019-04-05T10:55:21.681Z,13.54
2019-04-05T10:56:21.598Z,13.59
2019-04-05T10:57:21.614Z,13.29
2019-04-05T10:58:21.539Z,13.30
2019-04-05T10:59:21.493Z,13.49
2019-04-05T11:00:21.473Z,13.19
2019-04-05T11:01:21.442Z,12.89
2019-04-05T11:02:21.385Z,12.60
2019-04-05T11:03:21.378Z,12.16
2019-04-05T11:04:21.312Z,12.02
2019-04-05T11:05:21.272Z,12.04
2019-04-05T11:06:21.278Z,11.88
2019-04-05T11:07:21.193Z,12.04
2019-04-05T11:08:21.175Z,12.19
2019-04-05T11:09:21.156Z,12.16
2019-04-05T11:10:21.097Z,12.34
2019-04-05T11:11:21.103Z,12.12
2019-04-05T11:12:21.021Z,12.14
2019-04-05T11:13:21.003Z,12.01
2019-04-05T11:14:20.931Z,12.13
2019-04-05T11:15:20.918Z,12.12
2019-04-05T11:16:20.895Z,12.04
2019-04-05T11:17:20.838Z,11.90
2019-04-05T11:18:20.783Z,11.79
2019-04-05T11:19:20.737Z,11.83
2019-04-05T11:20:21.736Z,11.73
2019-04-05T11:21:20.679Z,11.85
2019-04-05T11:22:21.182Z,11.82
2019-04-05T11:23:21.437Z,11.73
2019-04-05T11:24:20.587Z,11.67
2019-04-05T11:25:21.109Z,11.69
2019-04-05T11:26:20.516Z,11.72
2019-04-05T11:27:20.450Z,11.61
2019-04-05T11:28:20.405Z,11.69
2019-04-05T11:29:20.367Z,11.67
2019-04-05T11:30:20.376Z,11.80
2019-04-05T11:31:20.322Z,11.73
2019-04-05T11:32:20.237Z,11.79
2019-04-05T11:33:20.201Z,11.75
2019-04-05T11:34:20.155Z,11.95
2019-04-05T11:35:20.174Z,12.04
2019-04-05T11:36:20.093Z,12.10
2019-04-05T11:37:20.067Z,12.04
2019-04-05T11:38:20.009Z,12.28
2019-04-05T11:39:19.978Z,12.54
2019-04-05T11:40:19.950Z,12.82
2019-04-05T11:41:19.907Z,12.53
2019-04-05T11:42:19.882Z,12.57
2019-04-05T11:43:19.816Z,12.60
2019-04-05T11:44:19.782Z,12.53
2019-04-05T11:45:19.752Z,12.65
2019-04-05T11:46:19.704Z,12.65
2019-04-05T11:47:19.922Z,12.62
2019-04-05T11:48:19.610Z,12.71
2019-04-05T11:49:19.600Z,12.67
2019-04-05T11:50:19.572Z,12.52
2019-04-05T11:51:19.515Z,12.47
2019-04-05T11:52:19.455Z,12.45
2019-04-05T11:53:21.855Z,12.45
2019-04-05T11:54:19.386Z,12.46
2019-04-05T11:55:19.346Z,12.59
2019-04-05T11:56:20.059Z,12.67
2019-04-05T11:57:19.263Z,12.54
2019-04-05T11:58:19.237Z,12.21
2019-04-05T11:59:19.209Z,11.99
2019-04-05T12:00:19.181Z,11.99
2019-04-05T12:01:19.105Z,12.07
2019-04-05T12:02:19.077Z,12.05
2019-04-05T12:03:19.041Z,12.16
2019-04-05T12:04:19.004Z,12.19
2019-04-05T12:05:20.384Z,12.19
2019-04-05T12:06:18.934Z,12.23
2019-04-05T12:07:21.720Z,12.32
2019-04-05T12:08:18.850Z,12.39
2019-04-05T12:09:18.805Z,12.27
2019-04-05T12:10:19.564Z,12.24
2019-04-05T12:11:18.740Z,12.16
2019-04-05T12:12:18.675Z,12.13
2019-04-05T12:13:18.648Z,12.09
2019-04-05T12:14:29.690Z,12.14
2019-04-05T12:15:18.554Z,12.27
2019-04-05T12:16:18.524Z,12.20
2019-04-05T12:17:18.496Z,12.28
2019-04-05T12:18:19.689Z,12.12
2019-04-05T12:19:18.426Z,12.02
2019-04-05T12:20:18.362Z,11.90
2019-04-05T12:21:20.724Z,11.88
2019-04-05T12:22:19.933Z,11.90
2019-04-05T12:23:18.246Z,11.90
2019-04-05T12:24:18.229Z,11.85
2019-04-05T12:25:18.170Z,11.90
2019-04-05T12:26:18.138Z,11.73
2019-04-05T12:27:20.758Z,11.73
2019-04-05T12:28:18.046Z,11.80
2019-04-05T12:29:18.009Z,11.72
2019-04-05T12:30:17.964Z,11.64
2019-04-05T12:31:17.930Z,11.58
2019-04-05T12:32:18.740Z,11.33
2019-04-05T12:33:19.664Z,11.27
2019-04-05T12:34:21.479Z,11.27
2019-04-05T12:35:21.345Z,11.27
2019-04-05T12:36:17.729Z,11.33
2019-04-05T12:37:17.689Z,11.42
2019-04-05T12:38:28.116Z,11.54
2019-04-05T12:39:17.604Z,11.62
2019-04-05T12:40:17.588Z,11.64
2019-04-05T12:41:18.399Z,11.60
2019-04-05T12:42:17.493Z,11.58
2019-04-05T12:43:17.469Z,11.70
2019-04-05T12:44:17.417Z,11.76
2019-04-05T12:45:17.396Z,11.65
2019-04-05T12:46:17.323Z,11.58
2019-04-05T12:47:17.301Z,11.52
2019-04-05T12:48:17.254Z,11.51
2019-04-05T12:49:17.238Z,11.54
2019-04-05T12:50:17.170Z,11.58
2019-04-05T12:51:17.173Z,11.51
2019-04-05T12:52:22.949Z,11.40
2019-04-05T12:53:17.056Z,11.55
2019-04-05T12:54:17.009Z,11.61
2019-04-05T12:55:16.986Z,11.54
2019-04-05T12:56:16.928Z,11.70
2019-04-05T12:57:16.907Z,11.72
2019-04-05T12:58:16.845Z,11.79
2019-04-05T12:59:16.798Z,11.85
2019-04-05T13:00:16.758Z,11.78
2019-04-05T13:01:16.732Z,11.73
2019-04-05T13:02:20.651Z,11.72
2019-04-05T13:03:16.679Z,11.55
2019-04-05T13:04:18.434Z,11.51
2019-04-05T13:05:16.572Z,11.55
2019-04-05T13:06:16.548Z,11.60
2019-04-05T13:07:16.475Z,11.58